sensor_id;sensor_type;location;lat;lon;timestamp;temperature;humidity
40622;DHT22;26324;52.040;11.528;2023-02-28T00:01:08;1.10;76.50
40622;DHT22;26324;52.040;11.528;2023-02-28T00:03:35;1.10;76.30
40622;DHT22;26324;52.040;11.528;2023-02-28T00:06:04;1.10;76.30
40622;DHT22;26324;52.040;11.528;2023-02-28T00:08:31;1.20;76.10
40622;DHT22;26324;52.040;11.528;2023-02-28T00:11:07;1.40;74.90
40622;DHT22;26324;52.040;11.528;2023-02-28T00:13:36;1.50;74.00
40622;DHT22;26324;52.040;11.528;2023-02-28T00:16:12;1.50;73.90
40622;DHT22;26324;52.040;11.528;2023-02-28T00:18:40;1.50;74.00
40622;DHT22;26324;52.040;11.528;2023-02-28T00:21:08;1.50;74.30
40622;DHT22;26324;52.040;11.528;2023-02-28T00:23:35;1.30;74.70
40622;DHT22;26324;52.040;11.528;2023-02-28T00:26:03;1.20;74.90
40622;DHT22;26324;52.040;11.528;2023-02-28T00:28:31;1.00;75.00
40622;DHT22;26324;52.040;11.528;2023-02-28T00:30:59;0.90;75.50
40622;DHT22;26324;52.040;11.528;2023-02-28T00:33:28;1.00;76.10
40622;DHT22;26324;52.040;11.528;2023-02-28T00:36:03;1.10;75.30
40622;DHT22;26324;52.040;11.528;2023-02-28T00:38:31;1.30;74.40
40622;DHT22;26324;52.040;11.528;2023-02-28T00:41:00;1.40;74.20
40622;DHT22;26324;52.040;11.528;2023-02-28T00:43:33;1.40;73.90
40622;DHT22;26324;52.040;11.528;2023-02-28T00:46:02;1.50;73.60
40622;DHT22;26324;52.040;11.528;2023-02-28T00:48:30;1.50;73.60
40622;DHT22;26324;52.040;11.528;2023-02-28T00:50:57;1.30;74.50
40622;DHT22;26324;52.040;11.528;2023-02-28T00:53:25;1.30;75.00
40622;DHT22;26324;52.040;11.528;2023-02-28T00:55:52;1.20;75.60
40622;DHT22;26324;52.040;11.528;2023-02-28T00:58:20;1.20;75.70
40622;DHT22;26324;52.040;11.528;2023-02-28T01:00:48;1.30;75.00
40622;DHT22;26324;52.040;11.528;2023-02-28T01:03:17;1.40;74.00
40622;DHT22;26324;52.040;11.528;2023-02-28T01:05:46;1.50;73.00
40622;DHT22;26324;52.040;11.528;2023-02-28T01:08:14;1.40;72.70
40622;DHT22;26324;52.040;11.528;2023-02-28T01:10:42;1.40;73.30
40622;DHT22;26324;52.040;11.528;2023-02-28T01:13:10;1.30;73.80
40622;DHT22;26324;52.040;11.528;2023-02-28T01:15:38;1.40;73.90
40622;DHT22;26324;52.040;11.528;2023-02-28T01:18:07;1.30;73.90
40622;DHT22;26324;52.040;11.528;2023-02-28T01:20:37;1.30;74.30
40622;DHT22;26324;52.040;11.528;2023-02-28T01:23:04;1.20;74.60
40622;DHT22;26324;52.040;11.528;2023-02-28T01:25:35;1.20;74.70
40622;DHT22;26324;52.040;11.528;2023-02-28T01:28:05;1.20;74.50
40622;DHT22;26324;52.040;11.528;2023-02-28T01:30:32;1.10;74.80
40622;DHT22;26324;52.040;11.528;2023-02-28T01:33:00;1.20;74.30
40622;DHT22;26324;52.040;11.528;2023-02-28T01:35:27;1.20;74.30
40622;DHT22;26324;52.040;11.528;2023-02-28T01:37:54;1.20;74.00
40622;DHT22;26324;52.040;11.528;2023-02-28T01:40:25;1.20;73.90
40622;DHT22;26324;52.040;11.528;2023-02-28T01:42:52;1.20;73.60
40622;DHT22;26324;52.040;11.528;2023-02-28T01:45:28;1.30;73.40
40622;DHT22;26324;52.040;11.528;2023-02-28T01:48:00;1.30;73.60
40622;DHT22;26324;52.040;11.528;2023-02-28T01:50:33;1.30;73.40
40622;DHT22;26324;52.040;11.528;2023-02-28T01:53:06;1.20;73.10
40622;DHT22;26324;52.040;11.528;2023-02-28T01:55:36;1.20;72.50
40622;DHT22;26324;52.040;11.528;2023-02-28T01:58:04;1.20;72.70
40622;DHT22;26324;52.040;11.528;2023-02-28T02:00:33;1.20;72.90
40622;DHT22;26324;52.040;11.528;2023-02-28T02:03:06;1.20;73.10
40622;DHT22;26324;52.040;11.528;2023-02-28T02:05:36;1.20;73.00
40622;DHT22;26324;52.040;11.528;2023-02-28T02:08:11;1.20;73.10
40622;DHT22;26324;52.040;11.528;2023-02-28T02:10:49;1.20;73.40
40622;DHT22;26324;52.040;11.528;2023-02-28T02:16:38;1.00;74.00
40622;DHT22;26324;52.040;11.528;2023-02-28T02:19:46;0.90;74.40
40622;DHT22;26324;52.040;11.528;2023-02-28T02:28:36;0.70;75.20
40622;DHT22;26324;52.040;11.528;2023-02-28T02:31:39;0.60;75.70
40622;DHT22;26324;52.040;11.528;2023-02-28T02:40:25;0.80;76.40
40622;DHT22;26324;52.040;11.528;2023-02-28T02:45:50;0.60;76.10
40622;DHT22;26324;52.040;11.528;2023-02-28T02:48:25;0.60;76.30
40622;DHT22;26324;52.040;11.528;2023-02-28T02:50:56;0.60;76.70
40622;DHT22;26324;52.040;11.528;2023-02-28T02:53:32;0.80;76.40
40622;DHT22;26324;52.040;11.528;2023-02-28T02:56:02;0.90;76.20
40622;DHT22;26324;52.040;11.528;2023-02-28T02:58:35;0.90;75.80
40622;DHT22;26324;52.040;11.528;2023-02-28T03:01:14;1.00;75.30
40622;DHT22;26324;52.040;11.528;2023-02-28T03:03:43;1.00;74.90
40622;DHT22;26324;52.040;11.528;2023-02-28T03:06:12;1.00;74.80
40622;DHT22;26324;52.040;11.528;2023-02-28T03:08:41;1.00;74.80
40622;DHT22;26324;52.040;11.528;2023-02-28T03:11:13;1.00;74.90
40622;DHT22;26324;52.040;11.528;2023-02-28T03:21:40;1.00;75.20
40622;DHT22;26324;52.040;11.528;2023-02-28T03:24:19;1.00;75.10
40622;DHT22;26324;52.040;11.528;2023-02-28T03:26:58;0.90;75.40
40622;DHT22;26324;52.040;11.528;2023-02-28T03:29:33;0.70;75.90
40622;DHT22;26324;52.040;11.528;2023-02-28T03:32:17;0.60;76.60
40622;DHT22;26324;52.040;11.528;2023-02-28T03:34:55;0.60;76.70
40622;DHT22;26324;52.040;11.528;2023-02-28T03:37:24;0.60;76.80
40622;DHT22;26324;52.040;11.528;2023-02-28T03:40:23;0.60;76.50
40622;DHT22;26324;52.040;11.528;2023-02-28T03:42:56;0.60;77.10
40622;DHT22;26324;52.040;11.528;2023-02-28T03:45:29;0.50;77.10
40622;DHT22;26324;52.040;11.528;2023-02-28T03:48:02;0.40;77.20
40622;DHT22;26324;52.040;11.528;2023-02-28T03:50:39;0.50;76.90
40622;DHT22;26324;52.040;11.528;2023-02-28T03:53:13;0.60;76.60
40622;DHT22;26324;52.040;11.528;2023-02-28T03:55:46;0.60;76.40
40622;DHT22;26324;52.040;11.528;2023-02-28T04:01:24;0.60;75.70
40622;DHT22;26324;52.040;11.528;2023-02-28T04:03:55;0.60;75.60
40622;DHT22;26324;52.040;11.528;2023-02-28T04:06:27;0.60;75.90
40622;DHT22;26324;52.040;11.528;2023-02-28T04:08:58;0.50;76.40
40622;DHT22;26324;52.040;11.528;2023-02-28T04:14:04;0.50;76.10
40622;DHT22;26324;52.040;11.528;2023-02-28T04:16:32;0.50;76.20
40622;DHT22;26324;52.040;11.528;2023-02-28T04:19:03;0.40;76.60
40622;DHT22;26324;52.040;11.528;2023-02-28T04:21:44;0.30;77.10
40622;DHT22;26324;52.040;11.528;2023-02-28T04:24:17;0.40;76.80
40622;DHT22;26324;52.040;11.528;2023-02-28T04:26:46;0.50;76.60
40622;DHT22;26324;52.040;11.528;2023-02-28T04:29:23;0.40;76.70
40622;DHT22;26324;52.040;11.528;2023-02-28T04:31:51;0.30;77.30
40622;DHT22;26324;52.040;11.528;2023-02-28T04:34:20;0.20;77.30
40622;DHT22;26324;52.040;11.528;2023-02-28T04:36:49;0.30;77.20
40622;DHT22;26324;52.040;11.528;2023-02-28T04:39:37;0.30;77.30
40622;DHT22;26324;52.040;11.528;2023-02-28T04:42:05;0.10;78.10
40622;DHT22;26324;52.040;11.528;2023-02-28T04:44:32;0.20;77.80
40622;DHT22;26324;52.040;11.528;2023-02-28T04:46:59;0.20;78.10
40622;DHT22;26324;52.040;11.528;2023-02-28T04:49:27;0.20;78.20
40622;DHT22;26324;52.040;11.528;2023-02-28T04:51:54;0.20;78.30
40622;DHT22;26324;52.040;11.528;2023-02-28T04:54:22;0.20;78.40
40622;DHT22;26324;52.040;11.528;2023-02-28T04:56:49;0.20;78.00
40622;DHT22;26324;52.040;11.528;2023-02-28T04:59:17;0.20;78.20
40622;DHT22;26324;52.040;11.528;2023-02-28T05:01:47;0.20;78.20
40622;DHT22;26324;52.040;11.528;2023-02-28T05:04:14;0.00;79.10
40622;DHT22;26324;52.040;11.528;2023-02-28T05:06:42;0.00;79.80
40622;DHT22;26324;52.040;11.528;2023-02-28T05:09:09;0.00;79.60
40622;DHT22;26324;52.040;11.528;2023-02-28T05:11:40;0.10;79.20
40622;DHT22;26324;52.040;11.528;2023-02-28T05:14:14;0.10;78.80
40622;DHT22;26324;52.040;11.528;2023-02-28T05:16:42;0.10;78.50
40622;DHT22;26324;52.040;11.528;2023-02-28T05:19:12;0.00;78.60
40622;DHT22;26324;52.040;11.528;2023-02-28T05:21:41;0.00;79.10
40622;DHT22;26324;52.040;11.528;2023-02-28T05:24:15;-3276.70;79.50
40622;DHT22;26324;52.040;11.528;2023-02-28T05:26:42;-3276.70;79.10
40622;DHT22;26324;52.040;11.528;2023-02-28T05:29:10;-3276.70;79.00
40622;DHT22;26324;52.040;11.528;2023-02-28T05:31:38;-3276.70;79.10
40622;DHT22;26324;52.040;11.528;2023-02-28T05:34:08;-3276.40;79.30
40622;DHT22;26324;52.040;11.528;2023-02-28T05:36:38;-3276.30;80.40
40622;DHT22;26324;52.040;11.528;2023-02-28T05:39:07;-3276.30;80.20
40622;DHT22;26324;52.040;11.528;2023-02-28T05:41:45;-3276.40;80.30
40622;DHT22;26324;52.040;11.528;2023-02-28T05:44:12;-3276.20;80.70
40622;DHT22;26324;52.040;11.528;2023-02-28T05:46:42;-3276.00;80.80
40622;DHT22;26324;52.040;11.528;2023-02-28T05:52:03;-3275.90;82.00
40622;DHT22;26324;52.040;11.528;2023-02-28T05:54:30;-3275.90;81.80
40622;DHT22;26324;52.040;11.528;2023-02-28T05:56:58;-3275.90;81.80
40622;DHT22;26324;52.040;11.528;2023-02-28T05:59:25;-3275.70;82.20
40622;DHT22;26324;52.040;11.528;2023-02-28T06:01:52;-3275.60;82.40
40622;DHT22;26324;52.040;11.528;2023-02-28T06:04:20;-3275.60;82.90
40622;DHT22;26324;52.040;11.528;2023-02-28T06:06:58;-3275.50;82.80
40622;DHT22;26324;52.040;11.528;2023-02-28T06:09:26;-3275.50;83.10
40622;DHT22;26324;52.040;11.528;2023-02-28T06:11:53;-3275.40;83.40
40622;DHT22;26324;52.040;11.528;2023-02-28T06:14:21;-3275.60;83.40
40622;DHT22;26324;52.040;11.528;2023-02-28T06:16:48;-3275.60;82.80
40622;DHT22;26324;52.040;11.528;2023-02-28T06:19:16;-3275.50;83.20
40622;DHT22;26324;52.040;11.528;2023-02-28T06:21:43;-3275.40;83.80
40622;DHT22;26324;52.040;11.528;2023-02-28T06:24:11;-3275.50;83.40
40622;DHT22;26324;52.040;11.528;2023-02-28T06:26:38;-3275.70;83.10
40622;DHT22;26324;52.040;11.528;2023-02-28T06:29:11;-3275.60;83.30
40622;DHT22;26324;52.040;11.528;2023-02-28T06:31:38;-3275.70;83.30
40622;DHT22;26324;52.040;11.528;2023-02-28T06:34:06;-3275.60;83.20
40622;DHT22;26324;52.040;11.528;2023-02-28T06:36:34;-3275.70;83.00
40622;DHT22;26324;52.040;11.528;2023-02-28T06:39:01;-3275.80;82.80
40622;DHT22;26324;52.040;11.528;2023-02-28T06:41:28;-3275.90;82.40
40622;DHT22;26324;52.040;11.528;2023-02-28T06:44:04;-3275.90;82.40
40622;DHT22;26324;52.040;11.528;2023-02-28T06:46:32;-3275.70;82.40
40622;DHT22;26324;52.040;11.528;2023-02-28T06:49:00;-3275.60;82.80
40622;DHT22;26324;52.040;11.528;2023-02-28T06:51:27;-3275.60;83.40
40622;DHT22;26324;52.040;11.528;2023-02-28T06:53:54;-3275.80;83.50
40622;DHT22;26324;52.040;11.528;2023-02-28T06:56:22;-3276.00;83.20
40622;DHT22;26324;52.040;11.528;2023-02-28T06:58:51;-3276.00;83.10
40622;DHT22;26324;52.040;11.528;2023-02-28T07:01:20;-3276.20;83.00
40622;DHT22;26324;52.040;11.528;2023-02-28T07:03:50;-3276.20;83.00
40622;DHT22;26324;52.040;11.528;2023-02-28T07:06:22;-3276.40;82.90
40622;DHT22;26324;52.040;11.528;2023-02-28T07:08:53;-3276.40;82.80
40622;DHT22;26324;52.040;11.528;2023-02-28T07:11:24;-3276.40;83.00
40622;DHT22;26324;52.040;11.528;2023-02-28T07:13:55;-3276.50;82.80
40622;DHT22;26324;52.040;11.528;2023-02-28T07:16:24;-3276.40;82.80
40622;DHT22;26324;52.040;11.528;2023-02-28T07:18:53;-3276.50;83.20
40622;DHT22;26324;52.040;11.528;2023-02-28T07:21:21;-3276.60;83.20
40622;DHT22;26324;52.040;11.528;2023-02-28T07:23:48;-3276.70;83.10
40622;DHT22;26324;52.040;11.528;2023-02-28T07:26:17;-3276.70;82.60
40622;DHT22;26324;52.040;11.528;2023-02-28T07:28:47;0.00;82.60
40622;DHT22;26324;52.040;11.528;2023-02-28T07:31:16;0.10;82.60
40622;DHT22;26324;52.040;11.528;2023-02-28T07:33:46;0.20;82.20
40622;DHT22;26324;52.040;11.528;2023-02-28T07:36:15;0.40;81.40
40622;DHT22;26324;52.040;11.528;2023-02-28T07:38:48;0.50;80.70
40622;DHT22;26324;52.040;11.528;2023-02-28T07:41:19;0.60;80.60
40622;DHT22;26324;52.040;11.528;2023-02-28T07:43:47;0.60;79.90
40622;DHT22;26324;52.040;11.528;2023-02-28T07:46:15;0.80;80.00
40622;DHT22;26324;52.040;11.528;2023-02-28T07:48:44;0.90;79.50
40622;DHT22;26324;52.040;11.528;2023-02-28T07:51:11;1.00;79.20
40622;DHT22;26324;52.040;11.528;2023-02-28T07:53:39;1.00;78.90
40622;DHT22;26324;52.040;11.528;2023-02-28T07:56:06;1.00;78.90
40622;DHT22;26324;52.040;11.528;2023-02-28T07:58:38;1.20;78.80
40622;DHT22;26324;52.040;11.528;2023-02-28T08:01:07;1.40;78.10
40622;DHT22;26324;52.040;11.528;2023-02-28T08:03:34;1.50;77.60
40622;DHT22;26324;52.040;11.528;2023-02-28T08:06:03;1.60;77.10
40622;DHT22;26324;52.040;11.528;2023-02-28T08:08:31;1.80;76.60
40622;DHT22;26324;52.040;11.528;2023-02-28T08:11:02;2.10;75.50
40622;DHT22;26324;52.040;11.528;2023-02-28T08:13:30;2.10;74.70
40622;DHT22;26324;52.040;11.528;2023-02-28T08:15:57;2.40;74.20
40622;DHT22;26324;52.040;11.528;2023-02-28T08:18:25;2.80;72.30
40622;DHT22;26324;52.040;11.528;2023-02-28T08:20:52;2.90;71.70
40622;DHT22;26324;52.040;11.528;2023-02-28T08:23:20;3.10;71.90
40622;DHT22;26324;52.040;11.528;2023-02-28T08:25:56;3.10;70.40
40622;DHT22;26324;52.040;11.528;2023-02-28T08:28:23;3.20;70.90
40622;DHT22;26324;52.040;11.528;2023-02-28T08:30:53;3.30;69.90
40622;DHT22;26324;52.040;11.528;2023-02-28T08:33:22;3.30;69.30
40622;DHT22;26324;52.040;11.528;2023-02-28T08:35:53;3.30;68.90
40622;DHT22;26324;52.040;11.528;2023-02-28T08:38:22;3.50;68.80
40622;DHT22;26324;52.040;11.528;2023-02-28T08:40:49;3.60;68.30
40622;DHT22;26324;52.040;11.528;2023-02-28T08:43:17;3.60;67.50
40622;DHT22;26324;52.040;11.528;2023-02-28T08:45:45;3.60;67.60
40622;DHT22;26324;52.040;11.528;2023-02-28T08:48:13;3.40;66.40
40622;DHT22;26324;52.040;11.528;2023-02-28T08:50:40;3.60;67.10
40622;DHT22;26324;52.040;11.528;2023-02-28T08:53:07;3.90;65.30
40622;DHT22;26324;52.040;11.528;2023-02-28T08:55:35;4.00;63.90
40622;DHT22;26324;52.040;11.528;2023-02-28T08:58:02;4.20;62.10
40622;DHT22;26324;52.040;11.528;2023-02-28T09:00:30;4.20;59.90
40622;DHT22;26324;52.040;11.528;2023-02-28T09:02:57;4.30;60.00
40622;DHT22;26324;52.040;11.528;2023-02-28T09:05:25;4.30;59.00
40622;DHT22;26324;52.040;11.528;2023-02-28T09:07:52;3.90;58.50
40622;DHT22;26324;52.040;11.528;2023-02-28T09:10:20;4.10;59.00
40622;DHT22;26324;52.040;11.528;2023-02-28T09:12:47;4.20;59.20
40622;DHT22;26324;52.040;11.528;2023-02-28T09:15:15;4.50;58.40
40622;DHT22;26324;52.040;11.528;2023-02-28T09:17:42;4.60;58.10
40622;DHT22;26324;52.040;11.528;2023-02-28T09:20:13;4.80;57.60
40622;DHT22;26324;52.040;11.528;2023-02-28T09:22:41;4.60;56.10
40622;DHT22;26324;52.040;11.528;2023-02-28T09:25:11;4.70;56.00
40622;DHT22;26324;52.040;11.528;2023-02-28T09:27:38;4.90;55.10
40622;DHT22;26324;52.040;11.528;2023-02-28T09:30:08;5.00;54.40
40622;DHT22;26324;52.040;11.528;2023-02-28T09:32:36;5.30;54.90
40622;DHT22;26324;52.040;11.528;2023-02-28T09:35:04;5.40;54.90
40622;DHT22;26324;52.040;11.528;2023-02-28T09:37:32;5.30;55.90
40622;DHT22;26324;52.040;11.528;2023-02-28T09:39:59;5.20;53.60
40622;DHT22;26324;52.040;11.528;2023-02-28T09:42:32;5.40;54.30
40622;DHT22;26324;52.040;11.528;2023-02-28T09:45:02;5.60;51.90
40622;DHT22;26324;52.040;11.528;2023-02-28T09:47:36;5.40;49.30
40622;DHT22;26324;52.040;11.528;2023-02-28T09:52:53;6.00;50.30
40622;DHT22;26324;52.040;11.528;2023-02-28T09:57:52;6.30;48.30
40622;DHT22;26324;52.040;11.528;2023-02-28T10:00:29;6.00;45.90
40622;DHT22;26324;52.040;11.528;2023-02-28T10:03:26;5.50;46.30
40622;DHT22;26324;52.040;11.528;2023-02-28T10:08:37;6.00;46.80
40622;DHT22;26324;52.040;11.528;2023-02-28T10:11:16;6.30;43.30
40622;DHT22;26324;52.040;11.528;2023-02-28T10:14:01;6.50;43.60
40622;DHT22;26324;52.040;11.528;2023-02-28T10:16:46;6.80;44.10
40622;DHT22;26324;52.040;11.528;2023-02-28T10:19:31;7.20;42.10
40622;DHT22;26324;52.040;11.528;2023-02-28T10:22:08;7.30;41.90
40622;DHT22;26324;52.040;11.528;2023-02-28T10:24:47;7.50;42.60
40622;DHT22;26324;52.040;11.528;2023-02-28T10:27:17;7.40;41.20
40622;DHT22;26324;52.040;11.528;2023-02-28T10:29:48;7.50;42.60
40622;DHT22;26324;52.040;11.528;2023-02-28T10:32:19;7.70;39.90
40622;DHT22;26324;52.040;11.528;2023-02-28T10:34:53;8.00;43.40
40622;DHT22;26324;52.040;11.528;2023-02-28T10:37:22;8.20;42.20
40622;DHT22;26324;52.040;11.528;2023-02-28T10:39:51;8.00;41.80
40622;DHT22;26324;52.040;11.528;2023-02-28T10:42:29;8.30;41.60
40622;DHT22;26324;52.040;11.528;2023-02-28T10:45:16;8.20;40.40
40622;DHT22;26324;52.040;11.528;2023-02-28T10:47:58;8.30;39.40
40622;DHT22;26324;52.040;11.528;2023-02-28T11:03:58;8.60;40.50
40622;DHT22;26324;52.040;11.528;2023-02-28T11:06:29;8.70;41.30
40622;DHT22;26324;52.040;11.528;2023-02-28T11:09:02;9.00;37.60
40622;DHT22;26324;52.040;11.528;2023-02-28T11:11:43;9.00;38.30
40622;DHT22;26324;52.040;11.528;2023-02-28T11:14:20;8.30;38.90
40622;DHT22;26324;52.040;11.528;2023-02-28T11:16:48;8.10;39.80
40622;DHT22;26324;52.040;11.528;2023-02-28T11:19:29;7.90;40.70
40622;DHT22;26324;52.040;11.528;2023-02-28T11:22:02;8.20;41.00
40622;DHT22;26324;52.040;11.528;2023-02-28T11:24:37;8.70;40.70
40622;DHT22;26324;52.040;11.528;2023-02-28T11:29:59;9.50;40.00
40622;DHT22;26324;52.040;11.528;2023-02-28T11:32:28;9.80;38.10
40622;DHT22;26324;52.040;11.528;2023-02-28T11:35:02;9.70;37.00
40622;DHT22;26324;52.040;11.528;2023-02-28T11:37:31;10.00;37.80
40622;DHT22;26324;52.040;11.528;2023-02-28T11:39:59;10.10;36.20
40622;DHT22;26324;52.040;11.528;2023-02-28T11:45:42;10.10;36.80
40622;DHT22;26324;52.040;11.528;2023-02-28T11:48:27;10.00;35.80
40622;DHT22;26324;52.040;11.528;2023-02-28T11:51:22;10.00;36.80
40622;DHT22;26324;52.040;11.528;2023-02-28T11:56:44;10.50;36.10
40622;DHT22;26324;52.040;11.528;2023-02-28T12:02:29;10.40;34.30
40622;DHT22;26324;52.040;11.528;2023-02-28T12:05:11;10.00;37.50
40622;DHT22;26324;52.040;11.528;2023-02-28T12:11:06;10.30;35.50
40622;DHT22;26324;52.040;11.528;2023-02-28T12:13:47;10.00;36.90
40622;DHT22;26324;52.040;11.528;2023-02-28T12:16:45;9.70;37.80
40622;DHT22;26324;52.040;11.528;2023-02-28T12:25:03;10.90;34.90
40622;DHT22;26324;52.040;11.528;2023-02-28T12:27:41;11.00;34.70
40622;DHT22;26324;52.040;11.528;2023-02-28T12:30:32;10.90;36.30
40622;DHT22;26324;52.040;11.528;2023-02-28T12:33:09;10.80;34.90
40622;DHT22;26324;52.040;11.528;2023-02-28T12:35:44;10.30;35.80
40622;DHT22;26324;52.040;11.528;2023-02-28T12:38:19;10.50;34.50
40622;DHT22;26324;52.040;11.528;2023-02-28T12:41:00;10.80;34.40
40622;DHT22;26324;52.040;11.528;2023-02-28T12:43:43;11.20;37.10
40622;DHT22;26324;52.040;11.528;2023-02-28T12:46:18;11.30;35.20
40622;DHT22;26324;52.040;11.528;2023-02-28T12:49:04;11.60;37.00
40622;DHT22;26324;52.040;11.528;2023-02-28T12:51:35;11.30;33.30
40622;DHT22;26324;52.040;11.528;2023-02-28T12:54:18;11.30;36.00
40622;DHT22;26324;52.040;11.528;2023-02-28T12:57:00;11.70;33.60
40622;DHT22;26324;52.040;11.528;2023-02-28T12:59:49;12.00;33.30
40622;DHT22;26324;52.040;11.528;2023-02-28T13:02:51;12.00;33.50
40622;DHT22;26324;52.040;11.528;2023-02-28T13:11:23;12.30;33.10
40622;DHT22;26324;52.040;11.528;2023-02-28T13:13:58;12.10;31.70
40622;DHT22;26324;52.040;11.528;2023-02-28T13:16:26;12.10;33.90
40622;DHT22;26324;52.040;11.528;2023-02-28T13:19:08;12.50;33.10
40622;DHT22;26324;52.040;11.528;2023-02-28T13:21:43;12.90;32.90
40622;DHT22;26324;52.040;11.528;2023-02-28T13:24:41;13.30;32.40
40622;DHT22;26324;52.040;11.528;2023-02-28T13:29:39;14.60;30.40
40622;DHT22;26324;52.040;11.528;2023-02-28T13:34:40;15.00;28.80
40622;DHT22;26324;52.040;11.528;2023-02-28T13:39:50;16.20;28.10
40622;DHT22;26324;52.040;11.528;2023-02-28T13:42:36;16.70;24.70
40622;DHT22;26324;52.040;11.528;2023-02-28T13:47:44;17.70;25.00
40622;DHT22;26324;52.040;11.528;2023-02-28T13:50:35;18.10;24.20
40622;DHT22;26324;52.040;11.528;2023-02-28T13:58:43;19.40;23.00
40622;DHT22;26324;52.040;11.528;2023-02-28T14:01:37;19.70;23.10
40622;DHT22;26324;52.040;11.528;2023-02-28T14:04:40;19.50;22.70
40622;DHT22;26324;52.040;11.528;2023-02-28T14:07:37;19.80;22.40
40622;DHT22;26324;52.040;11.528;2023-02-28T14:10:15;19.90;22.00
40622;DHT22;26324;52.040;11.528;2023-02-28T14:15:55;20.70;21.00
40622;DHT22;26324;52.040;11.528;2023-02-28T14:18:32;21.00;21.40
40622;DHT22;26324;52.040;11.528;2023-02-28T14:21:20;21.20;20.90
40622;DHT22;26324;52.040;11.528;2023-02-28T14:24:23;21.50;20.40
40622;DHT22;26324;52.040;11.528;2023-02-28T14:27:08;21.40;20.20
40622;DHT22;26324;52.040;11.528;2023-02-28T14:32:22;21.30;19.90
40622;DHT22;26324;52.040;11.528;2023-02-28T14:35:20;21.20;20.00
40622;DHT22;26324;52.040;11.528;2023-02-28T14:37:49;21.50;20.10
40622;DHT22;26324;52.040;11.528;2023-02-28T14:40:24;21.70;20.00
40622;DHT22;26324;52.040;11.528;2023-02-28T14:42:59;21.80;20.40
40622;DHT22;26324;52.040;11.528;2023-02-28T14:45:29;21.90;19.80
40622;DHT22;26324;52.040;11.528;2023-02-28T14:47:58;21.60;20.00
40622;DHT22;26324;52.040;11.528;2023-02-28T14:50:27;21.60;19.50
40622;DHT22;26324;52.040;11.528;2023-02-28T14:52:57;21.70;19.80
40622;DHT22;26324;52.040;11.528;2023-02-28T14:55:29;21.90;19.90
40622;DHT22;26324;52.040;11.528;2023-02-28T14:57:59;21.80;20.30
40622;DHT22;26324;52.040;11.528;2023-02-28T15:00:29;22.00;19.90
40622;DHT22;26324;52.040;11.528;2023-02-28T15:02:58;22.00;19.30
40622;DHT22;26324;52.040;11.528;2023-02-28T15:05:32;22.00;19.20
40622;DHT22;26324;52.040;11.528;2023-02-28T15:08:12;21.90;19.90
40622;DHT22;26324;52.040;11.528;2023-02-28T15:10:44;22.00;19.70
40622;DHT22;26324;52.040;11.528;2023-02-28T15:13:14;21.90;19.80
40622;DHT22;26324;52.040;11.528;2023-02-28T15:18:43;21.30;20.20
40622;DHT22;26324;52.040;11.528;2023-02-28T15:21:15;21.50;19.20
40622;DHT22;26324;52.040;11.528;2023-02-28T15:23:48;21.20;19.30
40622;DHT22;26324;52.040;11.528;2023-02-28T15:26:20;21.00;20.00
40622;DHT22;26324;52.040;11.528;2023-02-28T15:28:55;20.60;20.60
40622;DHT22;26324;52.040;11.528;2023-02-28T15:31:31;20.50;20.70
40622;DHT22;26324;52.040;11.528;2023-02-28T15:34:41;20.80;20.90
40622;DHT22;26324;52.040;11.528;2023-02-28T15:43:00;20.50;21.30
40622;DHT22;26324;52.040;11.528;2023-02-28T15:45:34;20.50;21.10
40622;DHT22;26324;52.040;11.528;2023-02-28T15:48:23;20.40;20.90
40622;DHT22;26324;52.040;11.528;2023-02-28T15:51:04;20.10;21.30
40622;DHT22;26324;52.040;11.528;2023-02-28T15:53:52;20.10;20.70
40622;DHT22;26324;52.040;11.528;2023-02-28T15:56:33;19.90;21.30
40622;DHT22;26324;52.040;11.528;2023-02-28T15:59:06;19.50;21.40
40622;DHT22;26324;52.040;11.528;2023-02-28T16:01:35;19.20;21.90
40622;DHT22;26324;52.040;11.528;2023-02-28T16:04:05;18.90;22.50
40622;DHT22;26324;52.040;11.528;2023-02-28T16:09:25;18.50;22.30
40622;DHT22;26324;52.040;11.528;2023-02-28T16:11:54;18.00;23.40
40622;DHT22;26324;52.040;11.528;2023-02-28T16:14:24;17.00;24.50
40622;DHT22;26324;52.040;11.528;2023-02-28T16:16:54;15.90;26.30
40622;DHT22;26324;52.040;11.528;2023-02-28T16:19:22;14.80;26.90
40622;DHT22;26324;52.040;11.528;2023-02-28T16:21:51;13.50;28.20
40622;DHT22;26324;52.040;11.528;2023-02-28T16:24:18;12.40;31.10
40622;DHT22;26324;52.040;11.528;2023-02-28T16:26:47;11.40;32.00
40622;DHT22;26324;52.040;11.528;2023-02-28T16:29:40;10.60;34.30
40622;DHT22;26324;52.040;11.528;2023-02-28T16:32:06;10.00;35.30
40622;DHT22;26324;52.040;11.528;2023-02-28T16:34:34;9.40;36.40
40622;DHT22;26324;52.040;11.528;2023-02-28T16:37:01;9.00;37.70
40622;DHT22;26324;52.040;11.528;2023-02-28T16:39:28;8.60;37.90
40622;DHT22;26324;52.040;11.528;2023-02-28T16:41:56;8.30;38.70
40622;DHT22;26324;52.040;11.528;2023-02-28T16:44:27;8.10;39.60
40622;DHT22;26324;52.040;11.528;2023-02-28T16:46:55;7.90;40.30
40622;DHT22;26324;52.040;11.528;2023-02-28T16:49:23;7.70;41.00
40622;DHT22;26324;52.040;11.528;2023-02-28T16:51:53;7.50;41.60
40622;DHT22;26324;52.040;11.528;2023-02-28T16:54:20;7.30;41.60
40622;DHT22;26324;52.040;11.528;2023-02-28T16:56:48;7.10;43.10
40622;DHT22;26324;52.040;11.528;2023-02-28T16:59:24;7.00;43.70
40622;DHT22;26324;52.040;11.528;2023-02-28T17:01:55;6.80;44.30
40622;DHT22;26324;52.040;11.528;2023-02-28T17:04:26;6.60;45.70
40622;DHT22;26324;52.040;11.528;2023-02-28T17:06:53;6.50;46.60
40622;DHT22;26324;52.040;11.528;2023-02-28T17:09:22;6.40;47.30
40622;DHT22;26324;52.040;11.528;2023-02-28T17:11:59;6.30;47.40
40622;DHT22;26324;52.040;11.528;2023-02-28T17:14:26;6.00;46.90
40622;DHT22;26324;52.040;11.528;2023-02-28T17:16:54;5.80;48.10
40622;DHT22;26324;52.040;11.528;2023-02-28T17:19:21;5.70;48.40
40622;DHT22;26324;52.040;11.528;2023-02-28T17:21:48;5.70;48.70
40622;DHT22;26324;52.040;11.528;2023-02-28T17:24:16;5.60;48.80
40622;DHT22;26324;52.040;11.528;2023-02-28T17:26:58;5.30;50.40
40622;DHT22;26324;52.040;11.528;2023-02-28T17:29:25;5.00;52.00
40622;DHT22;26324;52.040;11.528;2023-02-28T17:31:52;4.80;51.60
40622;DHT22;26324;52.040;11.528;2023-02-28T17:34:20;4.60;52.30
40622;DHT22;26324;52.040;11.528;2023-02-28T17:36:48;4.60;52.40
40622;DHT22;26324;52.040;11.528;2023-02-28T17:39:18;4.50;52.70
40622;DHT22;26324;52.040;11.528;2023-02-28T17:41:52;4.50;52.30
40622;DHT22;26324;52.040;11.528;2023-02-28T17:44:25;4.60;52.60
40622;DHT22;26324;52.040;11.528;2023-02-28T17:46:54;4.60;52.40
40622;DHT22;26324;52.040;11.528;2023-02-28T17:49:22;4.50;52.20